Time;durP1;ratioP1;P1;durP2;ratioP2;P2;SDS_P1;SDS_P2;PMS_P1;PMS_P2;Temp;Humidity;BMP_temperature;BMP_pressure;BME280_temperature;BME280_humidity;BME280_pressure;Samples;Min_cycle;Max_cycle;Signal;HPM_P1;HPM_P2
2021/05/01 00:00:21;;;;;;;26.73;15.60;;;;;;;11.66;93.69;99033.66;3479264;28;20100;-45
2021/05/01 00:02:04;;;;;;;29.83;17.77;;;;;;;11.62;93.83;99038.00;3482758;28;20087;-58
2021/05/01 00:03:46;;;;;;;28.95;18.58;;;;;;;11.57;93.90;99031.06;3482201;28;20103;-57
2021/05/01 00:05:27;;;;;;;32.30;18.27;;;;;;;11.51;93.51;99031.94;3479692;28;20083;-57
2021/05/01 00:07:09;;;;;;;28.10;17.20;;;;;;;11.45;93.63;99029.34;3483165;28;20534;-57
2021/05/01 00:08:51;;;;;;;22.45;14.98;;;;;;;11.41;93.15;99028.50;3480620;28;20049;-57
2021/05/01 00:10:32;;;;;;;22.38;14.95;;;;;;;11.37;93.18;99021.53;3484538;28;20060;-57
2021/05/01 00:12:14;;;;;;;21.60;15.15;;;;;;;11.36;93.51;99019.81;3479586;28;20041;-46
2021/05/01 00:13:56;;;;;;;23.13;15.35;;;;;;;11.36;93.67;99025.03;3480756;28;20052;-45
2021/05/01 00:15:38;;;;;;;22.60;15.55;;;;;;;11.36;93.72;99013.75;3482788;28;20056;-46
2021/05/01 00:17:20;;;;;;;23.23;15.48;;;;;;;11.35;93.46;99019.81;3480431;28;20045;-57
2021/05/01 00:19:03;;;;;;;21.35;14.02;;;;;;;11.34;93.29;99013.78;3483862;28;20426;-57
2021/05/01 00:20:44;;;;;;;24.60;14.40;;;;;;;11.31;93.04;99007.69;3477829;28;20080;-57
2021/05/01 00:22:25;;;;;;;21.65;13.82;;;;;;;11.29;93.01;99012.00;3483528;28;20052;-57
2021/05/01 00:24:08;;;;;;;21.98;14.20;;;;;;;11.25;93.00;99011.13;3479185;28;20061;-45
2021/05/01 00:25:49;;;;;;;20.73;14.15;;;;;;;11.19;92.18;99014.59;3482231;28;20052;-57
2021/05/01 00:27:31;;;;;;;21.50;12.95;;;;;;;11.13;92.48;99016.31;3481357;28;20055;-57
2021/05/01 00:29:12;;;;;;;20.30;13.68;;;;;;;11.08;92.34;99021.50;3481309;28;20045;-57
2021/05/01 00:30:53;;;;;;;21.13;14.57;;;;;;;11.01;92.28;99015.44;3469901;28;20056;-47
2021/05/01 00:32:36;;;;;;;22.23;14.43;;;;;;;10.95;92.87;99019.75;3476336;28;20407;-45
2021/05/01 00:34:17;;;;;;;19.92;13.88;;;;;;;10.87;93.04;99030.13;3484645;28;20111;-45
2021/05/01 00:35:59;;;;;;;24.33;15.35;;;;;;;10.82;92.97;99031.84;3479595;28;20521;-46
2021/05/01 00:37:41;;;;;;;26.98;14.82;;;;;;;10.75;93.60;99025.75;3481919;28;20538;-45
2021/05/01 00:39:22;;;;;;;22.25;15.48;;;;;;;10.72;94.22;99043.91;3473182;28;20502;-46
2021/05/01 00:41:04;;;;;;;26.60;16.63;;;;;;;10.68;94.25;99037.00;3470075;28;20488;-46
2021/05/01 00:42:45;;;;;;;25.00;16.00;;;;;;;10.67;94.69;99037.84;3483940;28;20048;-46
2021/05/01 00:44:26;;;;;;;25.15;17.27;;;;;;;10.67;95.40;99041.31;3478983;28;20093;-46
2021/05/01 00:46:08;;;;;;;27.77;17.00;;;;;;;10.70;95.78;99044.78;3470532;28;20079;-47
2021/05/01 00:47:50;;;;;;;28.42;17.45;;;;;;;10.71;95.74;99046.53;3480084;28;20045;-57
2021/05/01 00:49:32;;;;;;;20.05;13.38;;;;;;;10.71;95.83;99044.78;3481757;28;20049;-57
2021/05/01 00:51:14;;;;;;;24.30;15.68;;;;;;;10.72;95.67;99050.84;3482365;28;20506;-47
2021/05/01 00:52:56;;;;;;;23.85;15.77;;;;;;;10.73;95.70;99042.22;3480306;28;20045;-46
2021/05/01 00:54:49;;;;;;;26.23;16.45;;;;;;;10.72;95.89;99049.09;3484652;28;20139;-47
2021/05/01 00:56:31;;;;;;;26.25;16.60;;;;;;;10.72;95.97;99043.06;3480510;28;20076;-46
2021/05/01 00:58:13;;;;;;;26.15;17.02;;;;;;;10.71;96.20;99044.78;3482442;28;20083;-57
2021/05/01 00:59:56;;;;;;;25.35;16.83;;;;;;;10.70;96.10;99042.19;3481832;28;20453;-48
2021/05/01 01:01:38;;;;;;;25.55;16.83;;;;;;;10.67;96.24;99051.69;3480866;28;20625;-53
2021/05/01 01:03:20;;;;;;;25.52;15.32;;;;;;;10.63;96.03;99046.47;3482813;28;20053;-57
2021/05/01 01:05:01;;;;;;;26.02;14.85;;;;;;;10.58;95.73;99043.91;3478624;28;20041;-57
2021/05/01 01:06:43;;;;;;;21.45;13.88;;;;;;;10.56;95.50;99042.13;3483727;28;20087;-57
2021/05/01 01:08:25;;;;;;;23.23;15.32;;;;;;;10.55;95.89;99055.94;3480378;28;20045;-57
2021/05/01 01:10:06;;;;;;;24.90;15.07;;;;;;;10.56;95.71;99052.50;3482857;28;20088;-57
2021/05/01 01:11:48;;;;;;;23.45;15.65;;;;;;;10.54;95.89;99052.50;3480863;28;20088;-56
2021/05/01 01:13:29;;;;;;;23.13;15.10;;;;;;;10.53;95.66;99055.97;3479896;28;20045;-55
2021/05/01 01:15:22;;;;;;;22.92;14.32;;;;;;;10.51;95.65;99059.41;3482409;28;20426;-56
2021/05/01 01:17:04;;;;;;;21.85;14.27;;;;;;;10.46;95.33;99057.66;3479652;28;20041;-57
2021/05/01 01:18:47;;;;;;;22.17;14.73;;;;;;;10.45;95.28;99062.84;3483960;28;20587;-46
2021/05/01 01:20:29;;;;;;;24.08;15.80;;;;;;;10.41;95.61;99067.16;3480402;28;20044;-56
2021/05/01 01:22:15;;;;;;;21.30;14.82;;;;;;;10.37;95.14;99067.13;3481776;28;20049;-46
2021/05/01 01:23:56;;;;;;;34.15;16.55;;;;;;;10.32;95.14;99061.94;3481360;28;20088;-57
2021/05/01 01:25:38;;;;;;;22.25;14.05;;;;;;;10.29;95.10;99065.34;3478457;28;20533;-47
2021/05/01 01:27:19;;;;;;;18.48;13.65;;;;;;;10.27;95.10;99068.81;3474881;28;20044;-57
2021/05/01 01:29:01;;;;;;;18.20;13.52;;;;;;;10.25;95.24;99066.22;3478700;28;20041;-57
2021/05/01 01:30:43;;;;;;;19.50;13.57;;;;;;;10.23;95.23;99070.53;3483574;28;20060;-57
2021/05/01 01:32:24;;;;;;;24.10;15.13;;;;;;;10.22;95.13;99075.69;3480059;28;20048;-56
2021/05/01 01:34:05;;;;;;;21.05;13.23;;;;;;;10.20;95.06;99072.25;3480180;28;20136;-57
2021/05/01 01:35:47;;;;;;;23.58;14.00;;;;;;;10.17;94.83;99072.22;3481846;28;20073;-46
2021/05/01 01:37:29;;;;;;;22.30;14.18;;;;;;;10.14;94.72;99080.84;3479957;28;20399;-58
2021/05/01 01:39:10;;;;;;;22.58;13.95;;;;;;;10.13;94.78;99075.66;3483261;28;20533;-56
2021/05/01 01:40:52;;;;;;;21.05;14.55;;;;;;;10.10;94.32;99081.66;3479911;28;20053;-57
2021/05/01 01:42:33;;;;;;;22.30;14.25;;;;;;;10.07;94.29;99081.66;3483138;28;20045;-45
2021/05/01 01:44:14;;;;;;;30.08;14.98;;;;;;;10.04;94.23;99084.25;3480255;28;20049;-56
2021/05/01 01:45:56;;;;;;;26.23;15.02;;;;;;;9.97;93.92;99085.06;3481375;28;20165;-58
2021/05/01 01:47:38;;;;;;;57.83;15.73;;;;;;;9.90;93.70;99086.75;3480683;28;20053;-47
2021/05/01 01:49:19;;;;;;;33.10;14.85;;;;;;;9.82;93.97;99086.66;3479379;28;20056;-44
2021/05/01 01:51:01;;;;;;;32.75;15.02;;;;;;;9.77;94.04;99087.50;3482949;28;20099;-58
2021/05/01 01:52:43;;;;;;;41.17;14.45;;;;;;;9.70;94.02;99090.06;3478389;28;20049;-58
2021/05/01 01:54:24;;;;;;;23.00;13.60;;;;;;;9.66;94.04;99093.44;3482872;28;20122;-58
2021/05/01 01:56:06;;;;;;;19.92;13.38;;;;;;;9.64;94.64;99095.16;3478495;28;20110;-58
2021/05/01 01:57:48;;;;;;;21.60;13.43;;;;;;;9.66;94.67;99100.34;3479079;28;20522;-58
2021/05/01 01:59:30;;;;;;;46.97;14.70;;;;;;;9.65;94.75;99102.09;3481041;28;20053;-58
2021/05/01 02:01:11;;;;;;;32.47;13.05;;;;;;;9.61;94.53;99104.63;3479093;28;20545;-58
2021/05/01 02:02:53;;;;;;;16.77;12.52;;;;;;;9.57;94.15;99101.16;3482789;28;20099;-47
2021/05/01 02:04:35;;;;;;;21.45;11.57;;;;;;;9.52;94.14;99103.72;3476881;28;20053;-58
2021/05/01 02:06:16;;;;;;;24.50;11.57;;;;;;;9.49;94.24;99106.28;3468969;28;20053;-58
2021/05/01 02:07:58;;;;;;;19.15;12.77;;;;;;;9.50;94.77;99112.31;3478953;28;20536;-58
2021/05/01 02:09:40;;;;;;;15.82;11.82;;;;;;;9.49;95.04;99110.59;3480566;28;20049;-58
2021/05/01 02:11:21;;;;;;;18.55;12.43;;;;;;;9.50;94.90;99115.75;3481245;28;20084;-58
2021/05/01 02:13:03;;;;;;;20.88;11.50;;;;;;;9.51;94.91;99116.66;3476982;28;20046;-46
2021/05/01 02:14:45;;;;;;;15.68;11.05;;;;;;;9.48;94.84;99116.59;3482158;28;20460;-48
2021/05/01 02:16:26;;;;;;;14.68;10.25;;;;;;;9.45;94.70;99120.06;3477577;28;20045;-47
2021/05/01 02:18:08;;;;;;;25.38;10.43;;;;;;;9.43;94.44;99120.88;3482632;28;20057;-47
2021/05/01 02:19:49;;;;;;;13.32;10.45;;;;;;;9.41;94.38;99115.66;3477751;28;20049;-45
2021/05/01 02:21:31;;;;;;;14.52;11.10;;;;;;;9.42;94.90;99120.00;3480206;28;20056;-47
2021/05/01 02:23:13;;;;;;;12.70;10.57;;;;;;;9.42;94.86;99125.19;3471198;28;20049;-46
2021/05/01 02:24:54;;;;;;;12.38;10.27;;;;;;;9.42;94.81;99120.00;3471820;28;20376;-46
2021/05/01 02:26:36;;;;;;;13.57;10.43;;;;;;;9.43;94.90;99116.56;3482331;28;20099;-46
2021/05/01 02:28:18;;;;;;;17.60;11.98;;;;;;;9.43;94.98;99120.88;3477422;28;20049;-46
2021/05/01 02:30:00;;;;;;;15.18;10.48;;;;;;;9.41;94.62;99123.41;3482397;28;20136;-47
2021/05/01 02:31:41;;;;;;;14.13;10.43;;;;;;;9.40;94.48;99119.09;3478774;28;20564;-46
2021/05/01 02:33:22;;;;;;;12.15;9.32;;;;;;;9.38;94.14;99119.94;3478922;28;20510;-46
2021/05/01 02:35:06;;;;;;;13.80;9.13;;;;;;;9.35;93.64;99119.06;3471063;28;20045;-47
2021/05/01 02:36:47;;;;;;;15.77;9.25;;;;;;;9.33;93.51;99118.19;3470738;28;20060;-47
2021/05/01 02:38:29;;;;;;;12.63;9.73;;;;;;;9.32;93.38;99126.78;3468727;28;20045;-58
2021/05/01 02:40:13;;;;;;;12.23;9.30;;;;;;;9.28;93.04;99122.44;3475330;28;20139;-47
2021/05/01 02:41:54;;;;;;;15.07;10.00;;;;;;;9.27;93.34;99125.88;3482397;28;20057;-47
2021/05/01 02:43:35;;;;;;;24.65;9.55;;;;;;;9.28;93.36;99134.53;3479002;28;20048;-46
2021/05/01 02:45:20;;;;;;;13.40;9.75;;;;;;;9.27;93.74;99131.03;3478887;28;20498;-47
2021/05/01 02:47:01;;;;;;;13.13;9.98;;;;;;;9.27;93.76;99131.03;3480813;28;20080;-47
2021/05/01 02:48:43;;;;;;;12.48;9.68;;;;;;;9.27;93.69;99130.19;3477396;28;20415;-47
2021/05/01 02:50:25;;;;;;;17.60;10.77;;;;;;;9.27;93.82;99131.03;3482070;28;20422;-46
2021/05/01 02:52:06;;;;;;;13.93;10.63;;;;;;;9.26;94.19;99134.50;3478783;28;20071;-58
2021/05/01 02:53:49;;;;;;;15.90;11.35;;;;;;;9.27;94.10;99137.94;3482187;28;20057;-58
2021/05/01 02:55:30;;;;;;;13.13;10.15;;;;;;;9.24;94.12;99140.50;3476753;28;20045;-58
2021/05/01 02:57:11;;;;;;;25.50;10.05;;;;;;;9.18;93.83;99136.13;3480348;28;20072;-46
2021/05/01 02:58:54;;;;;;;16.40;9.82;;;;;;;9.12;93.85;99144.69;3479451;28;20045;-46
2021/05/01 03:00:35;;;;;;;17.58;10.57;;;;;;;9.07;93.98;99145.50;3478605;28;20418;-46
2021/05/01 03:02:16;;;;;;;12.18;10.45;;;;;;;9.02;94.00;99142.84;3468462;28;20077;-47
2021/05/01 03:03:58;;;;;;;19.95;12.32;;;;;;;8.99;94.13;99142.81;3472956;28;20438;-58
2021/05/01 03:05:39;;;;;;;16.20;12.10;;;;;;;9.00;94.54;99146.28;3482329;28;20045;-58
2021/05/01 03:07:21;;;;;;;15.77;12.32;;;;;;;9.02;94.69;99147.16;3477612;28;20049;-58
2021/05/01 03:09:03;;;;;;;16.80;12.43;;;;;;;9.04;94.74;99158.41;3482776;28;20061;-58
2021/05/01 03:10:45;;;;;;;17.95;13.38;;;;;;;9.06;95.19;99160.13;3481892;28;20096;-58
2021/05/01 03:12:26;;;;;;;14.85;10.68;;;;;;;9.10;95.17;99167.09;3480976;28;20103;-58
2021/05/01 03:14:08;;;;;;;14.55;10.80;;;;;;;9.16;95.60;99174.06;3479309;28;20049;-58
2021/05/01 03:15:49;;;;;;;24.85;15.90;;;;;;;9.22;96.00;99168.94;3476486;28;20053;-58
2021/05/01 03:17:31;;;;;;;26.92;15.85;;;;;;;9.29;96.31;99168.16;3470740;28;20111;-59
2021/05/01 03:19:12;;;;;;;27.05;17.60;;;;;;;9.34;96.36;99165.63;3474123;28;20045;-58
2021/05/01 03:20:54;;;;;;;24.23;16.30;;;;;;;9.38;96.32;99161.34;3471639;28;20421;-58
2021/05/01 03:22:35;;;;;;;25.00;16.60;;;;;;;9.41;96.20;99167.41;3482021;28;20056;-48
2021/05/01 03:24:17;;;;;;;32.97;22.30;;;;;;;9.46;96.34;99170.97;3481523;28;20045;-59
2021/05/01 03:25:59;;;;;;;31.77;20.58;;;;;;;9.50;96.56;99171.84;3484020;28;20509;-58
2021/05/01 03:27:40;;;;;;;36.03;23.17;;;;;;;9.52;96.30;99173.63;3479498;28;20041;-58
2021/05/01 03:29:22;;;;;;;35.33;23.05;;;;;;;9.56;96.31;99179.69;3484414;28;20049;-58
2021/05/01 03:31:03;;;;;;;37.80;26.02;;;;;;;9.60;96.42;99173.69;3479321;28;20469;-58
2021/05/01 03:32:45;;;;;;;47.83;30.63;;;;;;;9.64;96.35;99190.13;3482083;28;20111;-58
2021/05/01 03:34:27;;;;;;;47.97;30.42;;;;;;;9.71;96.82;99184.16;3482262;28;20053;-57
2021/05/01 03:36:09;;;;;;;42.17;29.25;;;;;;;9.77;96.94;99180.75;3480889;28;20057;-59
2021/05/01 03:37:50;;;;;;;45.85;28.27;;;;;;;9.83;96.86;99181.66;3484036;28;20534;-59
2021/05/01 03:39:32;;;;;;;39.22;24.90;;;;;;;9.87;96.86;99190.34;3478975;28;20042;-58
2021/05/01 03:41:13;;;;;;;38.67;23.45;;;;;;;9.91;96.98;99185.19;3470378;28;20140;-58
2021/05/01 03:42:55;;;;;;;35.97;23.23;;;;;;;9.99;97.08;99189.56;3480351;28;20053;-58
2021/05/01 03:44:36;;;;;;;43.10;23.35;;;;;;;10.05;97.18;99184.44;3482285;28;20088;-58
2021/05/01 03:46:18;;;;;;;34.13;22.00;;;;;;;10.11;97.19;99187.09;3481887;28;20053;-58
2021/05/01 03:47:59;;;;;;;33.35;20.35;;;;;;;10.17;97.05;99188.84;3479876;28;20044;-58
2021/05/01 03:49:41;;;;;;;41.92;22.48;;;;;;;10.22;97.10;99189.75;3470743;28;20111;-47
2021/05/01 03:51:22;;;;;;;35.78;22.75;;;;;;;10.29;97.19;99197.56;3476401;28;20053;-47
2021/05/01 03:53:04;;;;;;;36.92;21.95;;;;;;;10.36;97.37;99201.09;3484073;28;20053;-58
2021/05/01 03:54:46;;;;;;;40.40;21.95;;;;;;;10.43;97.11;99205.44;3478492;28;20049;-47
2021/05/01 03:56:27;;;;;;;39.25;21.90;;;;;;;10.51;97.15;99208.09;3481828;28;20308;-46
2021/05/01 03:58:09;;;;;;;39.35;23.83;;;;;;;10.58;97.40;99209.88;3482602;28;20064;-47
2021/05/01 03:59:50;;;;;;;41.10;23.75;;;;;;;10.65;97.57;99209.06;3481222;28;20470;-58
2021/05/01 04:01:32;;;;;;;38.90;23.85;;;;;;;10.74;97.55;99213.44;3483665;28;20537;-58
2021/05/01 04:03:13;;;;;;;40.47;24.48;;;;;;;10.82;97.64;99214.31;3479290;28;20125;-58
2021/05/01 04:04:54;;;;;;;28.13;17.88;;;;;;;10.92;97.67;99220.44;3483472;28;20073;-47
2021/05/01 04:06:36;;;;;;;29.80;18.95;;;;;;;11.01;97.41;99224.81;3478646;28;20049;-47
2021/05/01 04:08:17;;;;;;;41.08;23.50;;;;;;;11.05;97.46;99217.03;3480961;28;20414;-47
2021/05/01 04:09:59;;;;;;;41.13;23.25;;;;;;;11.18;97.23;99227.47;3481817;28;20045;-58
2021/05/01 04:11:40;;;;;;;36.33;22.05;;;;;;;11.25;97.20;99224.03;3480560;28;20056;-58
2021/05/01 04:13:22;;;;;;;40.33;22.88;;;;;;;11.34;97.09;99228.41;3482574;28;20048;-47
2021/05/01 04:15:05;;;;;;;34.92;21.50;;;;;;;11.41;97.19;99224.97;3480245;28;20052;-47
2021/05/01 04:16:46;;;;;;;38.85;23.05;;;;;;;11.47;97.09;99226.75;3483921;28;20053;-47
2021/05/01 04:18:27;;;;;;;39.38;23.80;;;;;;;11.56;97.04;99229.38;3480307;28;20405;-47
2021/05/01 04:20:10;;;;;;;31.60;21.50;;;;;;;11.62;96.64;99224.16;3479679;28;20048;-46
2021/05/01 04:21:51;;;;;;;34.22;21.30;;;;;;;11.68;96.82;99232.00;3481441;28;20056;-59
2021/05/01 04:23:33;;;;;;;30.63;19.92;;;;;;;11.76;96.21;99229.41;3480453;28;20052;-59
2021/05/01 04:25:15;;;;;;;26.38;17.30;;;;;;;11.81;96.25;99225.94;3483509;28;20472;-59
2021/05/01 04:26:57;;;;;;;27.30;18.77;;;;;;;11.91;95.97;99226.81;3480267;28;20184;-59
2021/05/01 04:28:39;;;;;;;32.08;20.92;;;;;;;11.98;95.75;99227.72;3483683;28;20056;-59
2021/05/01 04:30:20;;;;;;;29.73;20.05;;;;;;;12.03;95.43;99223.38;3478963;28;20045;-59
2021/05/01 04:32:01;;;;;;;32.60;19.63;;;;;;;12.09;95.20;99225.97;3482002;28;20099;-60
2021/05/01 04:33:42;;;;;;;32.72;20.70;;;;;;;12.12;94.82;99223.38;3481094;28;20075;-58
2021/05/01 04:35:24;;;;;;;25.38;17.58;;;;;;;12.21;94.63;99219.91;3480388;28;20053;-48
2021/05/01 04:37:05;;;;;;;34.33;21.52;;;;;;;12.27;94.33;99225.09;3483297;28;20049;-49
2021/05/01 04:38:48;;;;;;;33.00;21.90;;;;;;;12.36;94.37;99229.44;3480274;28;20057;-46
2021/05/01 04:40:30;;;;;;;35.22;21.35;;;;;;;12.43;94.18;99233.75;3483385;28;20052;-47
2021/05/01 04:42:12;;;;;;;24.67;17.33;;;;;;;12.50;94.02;99232.88;3480041;28;20144;-47
2021/05/01 04:43:54;;;;;;;25.92;17.23;;;;;;;12.56;93.31;99240.69;3481651;28;20045;-50
2021/05/01 04:45:37;;;;;;;25.08;16.50;;;;;;;12.65;93.20;99244.16;3482122;28;20538;-47
2021/05/01 04:47:18;;;;;;;28.25;18.60;;;;;;;12.73;93.19;99237.19;3480210;28;20044;-47
2021/05/01 04:49:00;;;;;;;30.95;17.73;;;;;;;12.82;92.71;99244.09;3483180;28;20507;-47
2021/05/01 04:50:42;;;;;;;29.63;18.40;;;;;;;12.86;92.07;99228.50;3480111;28;20085;-46
2021/05/01 04:52:23;;;;;;;32.85;18.40;;;;;;;12.95;91.88;99232.84;3483461;28;20053;-47
2021/05/01 04:54:07;;;;;;;28.20;18.13;;;;;;;13.03;91.50;99230.19;3478698;28;20068;-47
2021/05/01 04:55:49;;;;;;;26.05;18.23;;;;;;;13.13;91.52;99231.91;3481407;28;20052;-47
2021/05/01 04:57:30;;;;;;;23.60;16.88;;;;;;;13.21;90.88;99232.75;3481670;28;20103;-47
2021/05/01 04:59:12;;;;;;;26.83;16.85;;;;;;;13.30;90.35;99232.69;3480263;28;20083;-46
2021/05/01 05:00:53;;;;;;;24.00;16.38;;;;;;;13.40;89.67;99230.03;3483148;28;20053;-46
2021/05/01 05:02:34;;;;;;;26.08;17.05;;;;;;;13.46;89.54;99225.69;3479439;28;20049;-46
2021/05/01 05:04:16;;;;;;;25.00;16.83;;;;;;;13.58;89.56;99232.53;3483553;28;20132;-59
2021/05/01 05:05:57;;;;;;;27.88;17.05;;;;;;;13.68;88.89;99233.38;3480199;28;20076;-58
2021/05/01 05:07:38;;;;;;;26.63;16.83;;;;;;;13.78;88.55;99228.97;3479961;28;20076;-59
2021/05/01 05:09:20;;;;;;;22.92;17.25;;;;;;;13.89;88.14;99224.53;3481843;28;20422;-46
2021/05/01 05:11:02;;;;;;;30.23;18.10;;;;;;;13.97;87.41;99225.38;3478648;28;20053;-47
2021/05/01 05:12:43;;;;;;;19.90;14.52;;;;;;;14.06;87.14;99224.44;3483274;28;20080;-47
2021/05/01 05:14:43;;;;;;;23.50;16.17;;;;;;;14.12;86.79;99226.97;3476794;28;20054;-46
2021/05/01 05:16:24;;;;;;;21.95;14.35;;;;;;;14.22;86.53;99228.63;3482600;28;20053;-47
2021/05/01 05:18:06;;;;;;;21.52;14.15;;;;;;;14.31;86.24;99232.94;3481038;28;20052;-57
2021/05/01 05:19:47;;;;;;;22.02;14.85;;;;;;;14.42;85.61;99232.84;3478417;28;20088;-58
2021/05/01 05:21:29;;;;;;;23.33;16.35;;;;;;;14.48;85.30;99237.16;3482781;28;20044;-58
2021/05/01 05:23:16;;;;;;;28.73;16.88;;;;;;;14.59;85.10;99232.72;3479483;28;20049;-58
2021/05/01 05:24:57;;;;;;;22.85;16.75;;;;;;;14.64;84.05;99231.78;3483261;28;20056;-58
2021/05/01 05:26:39;;;;;;;23.77;16.42;;;;;;;14.73;83.65;99229.94;3478122;28;20473;-58
2021/05/01 05:28:21;;;;;;;22.83;16.15;;;;;;;14.84;83.72;99226.34;3482078;28;20056;-58
2021/05/01 05:30:03;;;;;;;20.92;15.23;;;;;;;14.94;83.64;99234.06;3480932;28;20195;-58
2021/05/01 05:31:45;;;;;;;22.42;15.35;;;;;;;15.02;82.88;99225.25;3480505;28;20080;-58
2021/05/01 05:33:26;;;;;;;21.20;15.05;;;;;;;15.14;82.59;99231.25;3469227;28;20053;-58
2021/05/01 05:35:09;;;;;;;21.75;15.00;;;;;;;15.22;82.16;99232.00;3474848;28;20135;-58
2021/05/01 05:36:50;;;;;;;19.70;14.88;;;;;;;15.31;82.12;99233.63;3482817;28;20049;-59
2021/05/01 05:38:31;;;;;;;20.48;13.65;;;;;;;15.39;81.67;99235.25;3479412;28;20448;-58
2021/05/01 05:40:13;;;;;;;19.73;13.65;;;;;;;15.44;81.28;99232.59;3482312;28;20049;-58
2021/05/01 05:41:55;;;;;;;17.23;13.02;;;;;;;15.52;80.38;99235.09;3481485;28;20143;-58
2021/05/01 05:43:37;;;;;;;16.98;13.25;;;;;;;15.63;80.94;99228.03;3479574;28;20049;-58
2021/05/01 05:45:23;;;;;;;20.55;14.82;;;;;;;15.74;80.45;99225.25;3481772;28;20057;-58
2021/05/01 05:47:05;;;;;;;20.15;14.30;;;;;;;15.85;79.70;99227.69;3479283;28;20567;-58
2021/05/01 05:48:47;;;;;;;14.85;10.07;;;;;;;15.92;81.07;99235.44;3483023;28;20060;-58
2021/05/01 05:50:29;;;;;;;19.75;14.20;;;;;;;15.93;78.28;99233.66;3479254;28;20126;-57
2021/05/01 05:52:10;;;;;;;22.67;16.20;;;;;;;16.00;79.01;99237.94;3479640;28;20103;-57
2021/05/01 05:53:52;;;;;;;21.67;14.80;;;;;;;16.08;78.46;99243.91;3481289;28;20080;-57
2021/05/01 05:55:33;;;;;;;17.80;12.65;;;;;;;16.12;78.19;99245.59;3479478;28;20095;-57
2021/05/01 05:57:15;;;;;;;20.67;15.35;;;;;;;16.16;77.87;99238.56;3482487;28;20084;-57
2021/05/01 05:58:57;;;;;;;19.45;13.27;;;;;;;16.16;75.92;99235.94;3477581;28;20400;-57
2021/05/01 06:00:39;;;;;;;19.45;14.30;;;;;;;16.23;75.98;99234.06;3482739;28;20521;-57
2021/05/01 06:02:22;;;;;;;21.70;15.00;;;;;;;16.32;75.73;99237.41;3479456;28;20045;-57
2021/05/01 06:04:08;;;;;;;22.35;14.35;;;;;;;16.41;76.72;99238.16;3480573;28;20133;-57
2021/05/01 06:05:52;;;;;;;21.95;14.88;;;;;;;16.46;76.63;99231.06;3481286;28;20049;-58
2021/05/01 06:07:37;;;;;;;19.52;13.32;;;;;;;16.50;76.04;99238.84;3477819;28;20088;-58
2021/05/01 06:09:19;;;;;;;21.35;14.90;;;;;;;16.51;75.76;99235.34;3482884;28;20087;-58
2021/05/01 06:11:03;;;;;;;21.48;14.35;;;;;;;16.57;75.89;99238.75;3477920;28;20049;-58
2021/05/01 06:12:46;;;;;;;18.45;12.35;;;;;;;16.61;75.76;99241.28;3480845;28;20426;-58
2021/05/01 06:14:32;;;;;;;19.77;13.40;;;;;;;16.72;74.70;99254.19;3479010;28;20504;-47
2021/05/01 06:16:15;;;;;;;17.40;13.02;;;;;;;16.80;74.01;99249.72;3479143;28;20568;-48
2021/05/01 06:17:58;;;;;;;25.02;13.88;;;;;;;16.87;74.59;99250.47;3482634;28;20053;-58
2021/05/01 06:19:40;;;;;;;17.88;13.55;;;;;;;16.94;74.03;99243.34;3477611;28;20057;-55
2021/05/01 06:21:22;;;;;;;21.05;14.52;;;;;;;16.99;72.20;99237.13;3482618;28;20045;-57
2021/05/01 06:23:04;;;;;;;24.13;13.43;;;;;;;17.08;73.17;99236.09;3477712;28;20052;-57
2021/05/01 06:24:46;;;;;;;28.27;16.25;;;;;;;17.13;73.35;99238.59;3481074;28;20045;-57
2021/05/01 06:26:28;;;;;;;17.38;13.45;;;;;;;17.27;75.62;99247.03;3470336;28;20053;-57
2021/05/01 06:28:10;;;;;;;27.88;16.13;;;;;;;17.47;74.62;99241.41;3470930;28;20048;-57
2021/05/01 06:29:51;;;;;;;24.98;15.88;;;;;;;17.66;73.23;99252.38;3481849;28;20049;-48
2021/05/01 06:31:37;;;;;;;17.55;12.93;;;;;;;17.74;72.36;99254.81;3478107;28;20060;-56
2021/05/01 06:33:21;;;;;;;18.45;14.15;;;;;;;17.80;71.38;99254.66;3482315;28;20056;-56
2021/05/01 06:35:03;;;;;;;20.50;14.95;;;;;;;17.78;71.66;99257.34;3477810;28;20049;-55
2021/05/01 06:36:45;;;;;;;18.42;13.95;;;;;;;17.84;71.34;99257.22;3479019;28;20053;-54
2021/05/01 06:38:28;;;;;;;22.67;15.43;;;;;;;17.89;69.22;99259.75;3479955;28;20080;-56
2021/05/01 06:40:13;;;;;;;20.30;14.80;;;;;;;17.96;70.46;99266.59;3477660;28;20049;-54
2021/05/01 06:41:56;;;;;;;24.77;16.90;;;;;;;17.93;69.33;99263.16;3482342;28;20061;-47
2021/05/01 06:43:51;;;;;;;21.73;15.32;;;;;;;17.97;69.27;99262.19;3480452;28;20479;-46
2021/05/01 06:45:34;;;;;;;16.95;12.40;;;;;;;18.01;68.50;99262.09;3482742;28;20083;-48
2021/05/01 06:47:17;;;;;;;18.38;12.73;;;;;;;18.08;67.90;99267.19;3483355;28;20048;-47
2021/05/01 06:49:03;;;;;;;19.85;15.18;;;;;;;18.12;67.87;99271.47;3480406;28;20141;-47
2021/05/01 06:50:45;;;;;;;18.77;14.32;;;;;;;18.11;68.35;99267.97;3471092;28;20072;-47
2021/05/01 06:52:27;;;;;;;26.48;15.32;;;;;;;18.12;66.80;99276.69;3476693;28;20076;-47
2021/05/01 06:54:09;;;;;;;18.48;14.13;;;;;;;18.07;67.89;99279.47;3484357;28;20084;-47
2021/05/01 06:55:52;;;;;;;18.05;11.38;;;;;;;18.10;67.75;99281.13;3482306;28;20464;-46
2021/05/01 06:57:36;;;;;;;21.10;14.15;;;;;;;18.12;67.27;99266.19;3480828;28;20065;-47
2021/05/01 06:59:19;;;;;;;19.00;14.02;;;;;;;18.20;66.06;99272.16;3484034;28;20109;-47
2021/05/01 07:01:04;;;;;;;12.43;9.90;;;;;;;18.35;66.93;99268.31;3480902;28;20556;-46
2021/05/01 07:02:48;;;;;;;19.30;12.43;;;;;;;18.39;66.34;99270.78;3484671;28;20398;-47
2021/05/01 07:04:29;;;;;;;;;;;;;;;18.30;65.66;99267.56;3481410;28;20074;-46
2021/05/01 07:06:14;;;;;;;17.10;13.27;;;;;;;18.32;65.27;99268.38;3482433;28;19924;-48
2021/05/01 07:07:55;;;;;;;17.67;12.30;;;;;;;18.46;66.08;99279.41;3482648;28;20061;-52
2021/05/01 07:09:38;;;;;;;14.85;12.10;;;;;;;18.60;63.94;99273.81;3481223;28;20422;-52
2021/05/01 07:11:19;;;;;;;17.92;11.50;;;;;;;18.72;65.95;99273.47;3484069;28;20061;-53
2021/05/01 07:13:03;;;;;;;17.48;12.45;;;;;;;18.84;63.86;99271.44;3479463;28;20050;-53
2021/05/01 07:14:45;;;;;;;18.70;13.27;;;;;;;18.89;63.52;99270.44;3484663;28;20048;-53
2021/05/01 07:16:28;;;;;;;15.88;13.15;;;;;;;18.97;65.57;99273.72;3481086;28;20044;-51
2021/05/01 07:18:10;;;;;;;14.40;10.15;;;;;;;18.98;60.26;99264.06;3482795;28;20136;-52
2021/05/01 07:19:52;;;;;;;21.13;11.02;;;;;;;18.97;59.24;99267.63;3482114;28;20048;-52
2021/05/01 07:21:34;;;;;;;14.98;10.65;;;;;;;19.09;60.59;99262.00;3480886;28;20041;-52
2021/05/01 07:23:15;;;;;;;15.13;11.23;;;;;;;19.29;64.01;99265.84;3484102;28;20499;-52
2021/05/01 07:24:58;;;;;;;13.65;9.50;;;;;;;19.33;56.25;99259.59;3481095;28;20494;-46
2021/05/01 07:26:40;;;;;;;11.73;8.45;;;;;;;19.44;56.85;99265.41;3484383;28;20084;-47
2021/05/01 07:28:24;;;;;;;16.08;9.30;;;;;;;19.50;56.87;99267.00;3479458;28;20053;-46
2021/05/01 07:30:06;;;;;;;;;;;;;;;19.53;56.16;99267.78;3482944;28;20049;-46
2021/05/01 07:31:50;;;;;;;9.93;7.68;;;;;;;19.61;57.29;99262.28;3482685;28;19932;-47
2021/05/01 07:33:32;;;;;;;10.55;7.97;;;;;;;19.65;54.51;99260.41;3479775;28;20064;-46
2021/05/01 07:35:17;;;;;;;10.55;6.35;;;;;;;19.67;49.50;99261.22;3470506;28;20083;-46
2021/05/01 07:37:04;;;;;;;5.72;4.80;;;;;;;19.80;48.55;99264.38;3476725;28;20692;-51
2021/05/01 07:38:46;;;;;;;9.35;6.82;;;;;;;19.89;50.27;99254.44;3482652;28;20124;-50
2021/05/01 07:40:28;;;;;;;9.07;4.93;;;;;;;20.00;43.75;99254.09;3480813;28;20422;-50
2021/05/01 07:42:10;;;;;;;8.45;6.22;;;;;;;20.14;46.96;99253.66;3481053;28;20053;-49
2021/05/01 07:43:53;;;;;;;10.68;7.40;;;;;;;20.22;49.88;99250.75;3482869;28;20056;-50
2021/05/01 07:45:36;;;;;;;11.30;8.55;;;;;;;20.27;49.85;99255.00;3480583;28;20081;-50
2021/05/01 07:47:22;;;;;;;;;;;;;;;20.24;49.79;99257.72;3484404;28;20113;-49
2021/05/01 07:49:06;;;;;;;8.25;6.32;;;;;;;20.25;47.04;99261.22;3479353;28;19924;-51
2021/05/01 07:50:48;;;;;;;9.20;6.65;;;;;;;20.29;47.55;99265.50;3482223;28;20115;-50
2021/05/01 07:52:31;;;;;;;7.93;5.83;;;;;;;20.24;45.60;99267.41;3481935;28;20049;-50